sensor_id;sensor_type;location;lat;lon;timestamp;P1;durP1;ratioP1;P2;durP2;ratioP2
76351;SDS011;65179;47.786;19.138;2023-01-13T00:00:21;68.57;;;31.23;;
76351;SDS011;65179;47.786;19.138;2023-01-13T00:02:47;58.20;;;29.67;;
76351;SDS011;65179;47.786;19.138;2023-01-13T00:05:12;54.77;;;29.93;;
76351;SDS011;65179;47.786;19.138;2023-01-13T00:07:38;49.92;;;27.52;;
76351;SDS011;65179;47.786;19.138;2023-01-13T00:10:04;48.50;;;27.80;;
76351;SDS011;65179;47.786;19.138;2023-01-13T00:12:31;45.38;;;25.95;;
76351;SDS011;65179;47.786;19.138;2023-01-13T00:14:56;44.83;;;27.50;;
76351;SDS011;65179;47.786;19.138;2023-01-13T00:17:22;46.07;;;27.47;;
76351;SDS011;65179;47.786;19.138;2023-01-13T00:19:47;43.22;;;26.30;;
76351;SDS011;65179;47.786;19.138;2023-01-13T00:22:13;43.30;;;27.08;;
76351;SDS011;65179;47.786;19.138;2023-01-13T00:24:39;39.60;;;24.10;;
76351;SDS011;65179;47.786;19.138;2023-01-13T00:27:04;40.40;;;24.40;;
76351;SDS011;65179;47.786;19.138;2023-01-13T00:29:30;40.47;;;23.20;;
76351;SDS011;65179;47.786;19.138;2023-01-13T00:31:55;41.93;;;24.37;;
76351;SDS011;65179;47.786;19.138;2023-01-13T00:34:21;35.28;;;22.58;;
76351;SDS011;65179;47.786;19.138;2023-01-13T00:36:46;38.53;;;23.30;;
76351;SDS011;65179;47.786;19.138;2023-01-13T00:39:12;37.37;;;23.23;;
76351;SDS011;65179;47.786;19.138;2023-01-13T00:41:37;34.90;;;21.55;;
76351;SDS011;65179;47.786;19.138;2023-01-13T00:44:21;35.60;;;19.97;;
76351;SDS011;65179;47.786;19.138;2023-01-13T00:46:47;37.00;;;20.90;;
76351;SDS011;65179;47.786;19.138;2023-01-13T00:49:12;34.57;;;19.60;;
76351;SDS011;65179;47.786;19.138;2023-01-13T00:51:37;34.97;;;19.87;;
76351;SDS011;65179;47.786;19.138;2023-01-13T00:54:03;30.53;;;18.70;;
76351;SDS011;65179;47.786;19.138;2023-01-13T00:56:28;35.83;;;19.33;;
76351;SDS011;65179;47.786;19.138;2023-01-13T00:58:54;32.33;;;17.98;;
76351;SDS011;65179;47.786;19.138;2023-01-13T01:01:23;33.83;;;18.70;;
76351;SDS011;65179;47.786;19.138;2023-01-13T01:03:49;36.85;;;18.45;;
76351;SDS011;65179;47.786;19.138;2023-01-13T01:06:25;36.88;;;18.60;;
76351;SDS011;65179;47.786;19.138;2023-01-13T01:08:52;34.65;;;19.30;;
76351;SDS011;65179;47.786;19.138;2023-01-13T01:11:23;32.28;;;18.60;;
76351;SDS011;65179;47.786;19.138;2023-01-13T01:13:50;34.17;;;18.70;;
76351;SDS011;65179;47.786;19.138;2023-01-13T01:16:18;34.90;;;18.80;;
76351;SDS011;65179;47.786;19.138;2023-01-13T01:18:47;31.98;;;17.87;;
76351;SDS011;65179;47.786;19.138;2023-01-13T01:21:14;32.88;;;18.02;;
76351;SDS011;65179;47.786;19.138;2023-01-13T01:23:40;32.35;;;17.85;;
76351;SDS011;65179;47.786;19.138;2023-01-13T01:26:08;31.90;;;17.43;;
76351;SDS011;65179;47.786;19.138;2023-01-13T01:28:38;33.95;;;18.77;;
76351;SDS011;65179;47.786;19.138;2023-01-13T01:31:08;34.30;;;18.75;;
76351;SDS011;65179;47.786;19.138;2023-01-13T01:33:35;32.58;;;19.23;;
76351;SDS011;65179;47.786;19.138;2023-01-13T01:36:01;33.80;;;18.87;;
76351;SDS011;65179;47.786;19.138;2023-01-13T01:38:27;37.78;;;19.45;;
76351;SDS011;65179;47.786;19.138;2023-01-13T01:40:53;38.65;;;19.62;;
76351;SDS011;65179;47.786;19.138;2023-01-13T01:43:20;35.40;;;18.57;;
76351;SDS011;65179;47.786;19.138;2023-01-13T01:46:05;33.17;;;18.20;;
76351;SDS011;65179;47.786;19.138;2023-01-13T01:48:32;28.58;;;15.98;;
76351;SDS011;65179;47.786;19.138;2023-01-13T01:51:01;31.50;;;17.58;;
76351;SDS011;65179;47.786;19.138;2023-01-13T01:53:27;34.85;;;18.00;;
76351;SDS011;65179;47.786;19.138;2023-01-13T01:55:56;29.77;;;16.52;;
76351;SDS011;65179;47.786;19.138;2023-01-13T01:58:28;33.13;;;17.37;;
76351;SDS011;65179;47.786;19.138;2023-01-13T02:00:54;33.43;;;18.13;;
76351;SDS011;65179;47.786;19.138;2023-01-13T02:03:19;33.85;;;17.08;;
76351;SDS011;65179;47.786;19.138;2023-01-13T02:05:45;30.73;;;17.30;;
76351;SDS011;65179;47.786;19.138;2023-01-13T02:08:11;30.90;;;17.30;;
76351;SDS011;65179;47.786;19.138;2023-01-13T02:10:38;35.40;;;18.25;;
76351;SDS011;65179;47.786;19.138;2023-01-13T02:13:09;29.15;;;17.77;;
76351;SDS011;65179;47.786;19.138;2023-01-13T02:15:41;32.58;;;17.42;;
76351;SDS011;65179;47.786;19.138;2023-01-13T02:18:15;29.52;;;17.10;;
76351;SDS011;65179;47.786;19.138;2023-01-13T02:21:00;30.67;;;16.50;;
76351;SDS011;65179;47.786;19.138;2023-01-13T02:32:18;26.83;;;16.15;;
76351;SDS011;65179;47.786;19.138;2023-01-13T02:35:11;30.17;;;16.43;;
76351;SDS011;65179;47.786;19.138;2023-01-13T02:37:45;27.62;;;16.60;;
76351;SDS011;65179;47.786;19.138;2023-01-13T02:40:13;27.30;;;16.23;;
76351;SDS011;65179;47.786;19.138;2023-01-13T02:46:19;28.23;;;15.63;;
76351;SDS011;65179;47.786;19.138;2023-01-13T02:48:51;31.65;;;16.85;;
76351;SDS011;65179;47.786;19.138;2023-01-13T02:51:21;27.90;;;15.73;;
76351;SDS011;65179;47.786;19.138;2023-01-13T02:56:24;27.98;;;17.17;;
76351;SDS011;65179;47.786;19.138;2023-01-13T02:58:51;25.00;;;15.37;;
76351;SDS011;65179;47.786;19.138;2023-01-13T03:01:19;26.83;;;15.85;;
76351;SDS011;65179;47.786;19.138;2023-01-13T03:03:46;28.17;;;16.50;;
76351;SDS011;65179;47.786;19.138;2023-01-13T03:11:40;27.13;;;14.30;;
76351;SDS011;65179;47.786;19.138;2023-01-13T03:14:35;26.80;;;13.98;;
76351;SDS011;65179;47.786;19.138;2023-01-13T03:17:26;27.87;;;14.07;;
76351;SDS011;65179;47.786;19.138;2023-01-13T03:22:41;27.00;;;15.15;;
76351;SDS011;65179;47.786;19.138;2023-01-13T03:25:15;29.83;;;14.73;;
76351;SDS011;65179;47.786;19.138;2023-01-13T03:30:39;25.10;;;14.38;;
76351;SDS011;65179;47.786;19.138;2023-01-13T03:33:14;25.50;;;14.13;;
76351;SDS011;65179;47.786;19.138;2023-01-13T03:35:50;25.50;;;14.20;;
76351;SDS011;65179;47.786;19.138;2023-01-13T03:38:29;26.30;;;14.03;;
76351;SDS011;65179;47.786;19.138;2023-01-13T03:41:02;24.73;;;14.25;;
76351;SDS011;65179;47.786;19.138;2023-01-13T03:43:40;24.00;;;13.40;;
76351;SDS011;65179;47.786;19.138;2023-01-13T03:46:38;23.98;;;13.73;;
76351;SDS011;65179;47.786;19.138;2023-01-13T03:49:12;25.23;;;12.88;;
76351;SDS011;65179;47.786;19.138;2023-01-13T03:51:42;27.10;;;14.40;;
76351;SDS011;65179;47.786;19.138;2023-01-13T03:54:10;24.48;;;12.15;;
76351;SDS011;65179;47.786;19.138;2023-01-13T03:56:44;24.52;;;13.55;;
76351;SDS011;65179;47.786;19.138;2023-01-13T03:59:16;24.75;;;12.85;;
76351;SDS011;65179;47.786;19.138;2023-01-13T04:02:02;26.12;;;13.48;;
76351;SDS011;65179;47.786;19.138;2023-01-13T04:04:34;22.80;;;12.53;;
76351;SDS011;65179;47.786;19.138;2023-01-13T04:10:10;24.50;;;12.90;;
76351;SDS011;65179;47.786;19.138;2023-01-13T04:12:48;21.42;;;12.75;;
76351;SDS011;65179;47.786;19.138;2023-01-13T04:15:34;24.20;;;12.90;;
76351;SDS011;65179;47.786;19.138;2023-01-13T04:18:12;22.03;;;13.17;;
76351;SDS011;65179;47.786;19.138;2023-01-13T04:20:38;20.23;;;11.80;;
76351;SDS011;65179;47.786;19.138;2023-01-13T04:23:05;26.55;;;13.48;;
76351;SDS011;65179;47.786;19.138;2023-01-13T04:25:31;22.75;;;11.57;;
76351;SDS011;65179;47.786;19.138;2023-01-13T04:27:56;25.42;;;13.38;;
76351;SDS011;65179;47.786;19.138;2023-01-13T04:30:22;21.70;;;13.07;;
76351;SDS011;65179;47.786;19.138;2023-01-13T04:32:47;20.97;;;12.70;;
76351;SDS011;65179;47.786;19.138;2023-01-13T04:35:13;25.50;;;13.20;;
76351;SDS011;65179;47.786;19.138;2023-01-13T04:37:38;21.73;;;13.13;;
76351;SDS011;65179;47.786;19.138;2023-01-13T04:40:04;24.03;;;13.27;;
76351;SDS011;65179;47.786;19.138;2023-01-13T04:42:30;22.33;;;13.05;;
76351;SDS011;65179;47.786;19.138;2023-01-13T04:44:56;23.20;;;13.00;;
76351;SDS011;65179;47.786;19.138;2023-01-13T04:47:21;24.03;;;13.20;;
76351;SDS011;65179;47.786;19.138;2023-01-13T04:49:46;23.13;;;12.40;;
76351;SDS011;65179;47.786;19.138;2023-01-13T04:52:12;21.15;;;12.10;;
76351;SDS011;65179;47.786;19.138;2023-01-13T04:54:37;20.83;;;12.00;;
76351;SDS011;65179;47.786;19.138;2023-01-13T04:57:03;23.00;;;12.57;;
76351;SDS011;65179;47.786;19.138;2023-01-13T04:59:28;23.67;;;12.03;;
76351;SDS011;65179;47.786;19.138;2023-01-13T05:01:54;27.13;;;14.27;;
76351;SDS011;65179;47.786;19.138;2023-01-13T05:04:19;23.65;;;13.75;;
76351;SDS011;65179;47.786;19.138;2023-01-13T05:06:45;25.47;;;13.33;;
76351;SDS011;65179;47.786;19.138;2023-01-13T05:09:10;28.00;;;14.37;;
76351;SDS011;65179;47.786;19.138;2023-01-13T05:11:37;27.83;;;14.87;;
76351;SDS011;65179;47.786;19.138;2023-01-13T05:14:22;27.33;;;13.30;;
76351;SDS011;65179;47.786;19.138;2023-01-13T05:17:06;24.52;;;12.52;;
76351;SDS011;65179;47.786;19.138;2023-01-13T05:19:33;28.12;;;14.70;;
76351;SDS011;65179;47.786;19.138;2023-01-13T05:22:01;29.40;;;14.70;;
76351;SDS011;65179;47.786;19.138;2023-01-13T05:24:45;27.83;;;13.10;;
76351;SDS011;65179;47.786;19.138;2023-01-13T05:27:29;25.48;;;12.95;;
76351;SDS011;65179;47.786;19.138;2023-01-13T05:29:55;22.62;;;12.23;;
76351;SDS011;65179;47.786;19.138;2023-01-13T05:32:21;20.70;;;11.63;;
76351;SDS011;65179;47.786;19.138;2023-01-13T05:34:47;27.23;;;14.00;;
76351;SDS011;65179;47.786;19.138;2023-01-13T05:37:12;24.17;;;13.03;;
76351;SDS011;65179;47.786;19.138;2023-01-13T05:39:38;23.25;;;12.73;;
76351;SDS011;65179;47.786;19.138;2023-01-13T05:42:23;26.58;;;13.30;;
76351;SDS011;65179;47.786;19.138;2023-01-13T05:45:07;21.40;;;11.30;;
76351;SDS011;65179;47.786;19.138;2023-01-13T05:47:33;22.77;;;12.45;;
76351;SDS011;65179;47.786;19.138;2023-01-13T05:49:59;21.87;;;12.53;;
76351;SDS011;65179;47.786;19.138;2023-01-13T05:52:24;21.95;;;12.40;;
76351;SDS011;65179;47.786;19.138;2023-01-13T05:54:49;22.00;;;11.70;;
76351;SDS011;65179;47.786;19.138;2023-01-13T05:57:15;23.37;;;11.77;;
76351;SDS011;65179;47.786;19.138;2023-01-13T05:59:41;23.00;;;12.27;;
76351;SDS011;65179;47.786;19.138;2023-01-13T06:02:06;22.93;;;12.43;;
76351;SDS011;65179;47.786;19.138;2023-01-13T06:04:32;23.43;;;12.33;;
76351;SDS011;65179;47.786;19.138;2023-01-13T06:06:57;24.05;;;12.48;;
76351;SDS011;65179;47.786;19.138;2023-01-13T06:09:23;20.30;;;11.88;;
76351;SDS011;65179;47.786;19.138;2023-01-13T06:11:48;23.33;;;12.07;;
76351;SDS011;65179;47.786;19.138;2023-01-13T06:14:14;23.33;;;12.10;;
76351;SDS011;65179;47.786;19.138;2023-01-13T06:16:39;23.30;;;12.10;;
76351;SDS011;65179;47.786;19.138;2023-01-13T06:19:05;25.33;;;12.70;;
76351;SDS011;65179;47.786;19.138;2023-01-13T06:21:36;24.23;;;12.60;;
76351;SDS011;65179;47.786;19.138;2023-01-13T06:24:02;25.23;;;12.20;;
76351;SDS011;65179;47.786;19.138;2023-01-13T06:26:29;22.25;;;12.25;;
76351;SDS011;65179;47.786;19.138;2023-01-13T06:28:58;22.52;;;11.12;;
76351;SDS011;65179;47.786;19.138;2023-01-13T06:31:24;21.83;;;10.63;;
76351;SDS011;65179;47.786;19.138;2023-01-13T06:33:52;18.23;;;10.13;;
76351;SDS011;65179;47.786;19.138;2023-01-13T06:36:23;17.90;;;10.07;;
76351;SDS011;65179;47.786;19.138;2023-01-13T06:38:53;19.60;;;10.50;;
76351;SDS011;65179;47.786;19.138;2023-01-13T06:41:24;21.37;;;11.67;;
76351;SDS011;65179;47.786;19.138;2023-01-13T06:44:11;19.33;;;10.00;;
76351;SDS011;65179;47.786;19.138;2023-01-13T06:46:36;20.55;;;10.30;;
76351;SDS011;65179;47.786;19.138;2023-01-13T06:49:02;18.77;;;9.80;;
76351;SDS011;65179;47.786;19.138;2023-01-13T06:51:29;24.70;;;11.88;;
76351;SDS011;65179;47.786;19.138;2023-01-13T06:53:54;22.80;;;11.07;;
76351;SDS011;65179;47.786;19.138;2023-01-13T06:56:20;23.52;;;10.98;;
76351;SDS011;65179;47.786;19.138;2023-01-13T06:58:45;21.27;;;11.80;;
76351;SDS011;65179;47.786;19.138;2023-01-13T07:01:10;20.97;;;10.90;;
76351;SDS011;65179;47.786;19.138;2023-01-13T07:03:36;22.47;;;11.63;;
76351;SDS011;65179;47.786;19.138;2023-01-13T07:06:01;21.17;;;11.95;;
76351;SDS011;65179;47.786;19.138;2023-01-13T07:08:27;22.15;;;11.32;;
76351;SDS011;65179;47.786;19.138;2023-01-13T07:10:52;25.70;;;12.37;;
76351;SDS011;65179;47.786;19.138;2023-01-13T07:13:18;19.40;;;11.07;;
76351;SDS011;65179;47.786;19.138;2023-01-13T07:16:03;18.95;;;10.18;;
76351;SDS011;65179;47.786;19.138;2023-01-13T07:18:30;21.33;;;11.02;;
76351;SDS011;65179;47.786;19.138;2023-01-13T07:20:58;21.67;;;11.80;;
76351;SDS011;65179;47.786;19.138;2023-01-13T07:23:26;21.27;;;11.38;;
76351;SDS011;65179;47.786;19.138;2023-01-13T07:25:53;20.93;;;10.30;;
76351;SDS011;65179;47.786;19.138;2023-01-13T07:28:20;21.77;;;11.68;;
76351;SDS011;65179;47.786;19.138;2023-01-13T07:30:45;23.70;;;12.93;;
76351;SDS011;65179;47.786;19.138;2023-01-13T07:33:11;23.62;;;12.07;;
76351;SDS011;65179;47.786;19.138;2023-01-13T07:35:36;19.83;;;11.20;;
76351;SDS011;65179;47.786;19.138;2023-01-13T07:38:02;23.77;;;12.27;;
76351;SDS011;65179;47.786;19.138;2023-01-13T07:40:27;24.25;;;13.25;;
76351;SDS011;65179;47.786;19.138;2023-01-13T07:42:53;28.08;;;14.55;;
76351;SDS011;65179;47.786;19.138;2023-01-13T07:45:37;22.53;;;12.70;;
76351;SDS011;65179;47.786;19.138;2023-01-13T07:48:03;22.70;;;12.00;;
76351;SDS011;65179;47.786;19.138;2023-01-13T07:50:28;23.43;;;12.43;;
76351;SDS011;65179;47.786;19.138;2023-01-13T07:52:56;22.30;;;11.52;;
76351;SDS011;65179;47.786;19.138;2023-01-13T07:55:22;20.30;;;11.77;;
76351;SDS011;65179;47.786;19.138;2023-01-13T07:57:48;21.67;;;11.73;;
76351;SDS011;65179;47.786;19.138;2023-01-13T08:00:14;20.47;;;11.33;;
76351;SDS011;65179;47.786;19.138;2023-01-13T08:02:39;22.30;;;13.07;;
76351;SDS011;65179;47.786;19.138;2023-01-13T08:05:05;23.13;;;12.67;;
76351;SDS011;65179;47.786;19.138;2023-01-13T08:07:32;20.52;;;11.25;;
76351;SDS011;65179;47.786;19.138;2023-01-13T08:09:58;22.50;;;12.32;;
76351;SDS011;65179;47.786;19.138;2023-01-13T08:12:23;23.00;;;11.70;;
76351;SDS011;65179;47.786;19.138;2023-01-13T08:15:07;24.50;;;13.98;;
76351;SDS011;65179;47.786;19.138;2023-01-13T08:17:34;22.67;;;11.90;;
76351;SDS011;65179;47.786;19.138;2023-01-13T08:20:00;22.00;;;11.55;;
76351;SDS011;65179;47.786;19.138;2023-01-13T08:22:25;23.42;;;12.73;;
76351;SDS011;65179;47.786;19.138;2023-01-13T08:24:51;22.10;;;12.10;;
76351;SDS011;65179;47.786;19.138;2023-01-13T08:27:16;23.07;;;11.90;;
76351;SDS011;65179;47.786;19.138;2023-01-13T08:29:44;20.95;;;11.80;;
76351;SDS011;65179;47.786;19.138;2023-01-13T08:32:09;24.63;;;11.83;;
76351;SDS011;65179;47.786;19.138;2023-01-13T08:34:35;21.60;;;12.23;;
76351;SDS011;65179;47.786;19.138;2023-01-13T08:37:00;22.20;;;12.20;;
76351;SDS011;65179;47.786;19.138;2023-01-13T08:39:26;22.13;;;12.47;;
76351;SDS011;65179;47.786;19.138;2023-01-13T08:41:51;21.87;;;12.80;;
76351;SDS011;65179;47.786;19.138;2023-01-13T08:44:20;23.12;;;12.98;;
76351;SDS011;65179;47.786;19.138;2023-01-13T08:46:46;21.42;;;12.10;;
76351;SDS011;65179;47.786;19.138;2023-01-13T08:49:12;21.47;;;11.80;;
76351;SDS011;65179;47.786;19.138;2023-01-13T08:51:37;22.47;;;12.03;;
76351;SDS011;65179;47.786;19.138;2023-01-13T08:54:03;19.95;;;11.38;;
76351;SDS011;65179;47.786;19.138;2023-01-13T08:56:29;22.23;;;11.27;;
76351;SDS011;65179;47.786;19.138;2023-01-13T08:58:58;20.12;;;11.38;;
76351;SDS011;65179;47.786;19.138;2023-01-13T09:01:24;20.83;;;11.38;;
76351;SDS011;65179;47.786;19.138;2023-01-13T09:03:50;21.20;;;11.80;;
76351;SDS011;65179;47.786;19.138;2023-01-13T09:06:16;22.03;;;11.47;;
76351;SDS011;65179;47.786;19.138;2023-01-13T09:08:41;20.12;;;11.20;;
76351;SDS011;65179;47.786;19.138;2023-01-13T09:11:09;17.93;;;10.50;;
76351;SDS011;65179;47.786;19.138;2023-01-13T09:14:03;18.45;;;10.80;;
76351;SDS011;65179;47.786;19.138;2023-01-13T09:16:28;19.47;;;11.90;;
76351;SDS011;65179;47.786;19.138;2023-01-13T09:18:53;20.97;;;11.40;;
76351;SDS011;65179;47.786;19.138;2023-01-13T09:21:19;21.10;;;11.77;;
76351;SDS011;65179;47.786;19.138;2023-01-13T09:23:45;20.95;;;12.37;;
76351;SDS011;65179;47.786;19.138;2023-01-13T09:26:11;22.57;;;12.53;;
76351;SDS011;65179;47.786;19.138;2023-01-13T09:28:40;22.90;;;11.55;;
76351;SDS011;65179;47.786;19.138;2023-01-13T09:31:05;20.13;;;11.70;;
76351;SDS011;65179;47.786;19.138;2023-01-13T09:33:31;22.73;;;12.27;;
76351;SDS011;65179;47.786;19.138;2023-01-13T09:36:15;21.60;;;11.60;;
76351;SDS011;65179;47.786;19.138;2023-01-13T09:38:40;19.83;;;11.43;;
76351;SDS011;65179;47.786;19.138;2023-01-13T09:41:06;22.43;;;12.13;;
76351;SDS011;65179;47.786;19.138;2023-01-13T09:43:53;20.60;;;12.52;;
76351;SDS011;65179;47.786;19.138;2023-01-13T09:46:24;21.03;;;11.70;;
76351;SDS011;65179;47.786;19.138;2023-01-13T09:49:18;17.90;;;9.68;;
76351;SDS011;65179;47.786;19.138;2023-01-13T09:52:30;21.05;;;12.50;;
76351;SDS011;65179;47.786;19.138;2023-01-13T09:57:24;22.02;;;11.57;;
76351;SDS011;65179;47.786;19.138;2023-01-13T09:59:52;19.15;;;11.43;;
76351;SDS011;65179;47.786;19.138;2023-01-13T10:02:33;18.15;;;11.65;;
76351;SDS011;65179;47.786;19.138;2023-01-13T10:07:46;22.25;;;12.55;;
76351;SDS011;65179;47.786;19.138;2023-01-13T10:10:17;22.80;;;12.67;;
76351;SDS011;65179;47.786;19.138;2023-01-13T10:12:57;24.40;;;13.25;;
76351;SDS011;65179;47.786;19.138;2023-01-13T10:15:39;22.58;;;12.70;;
76351;SDS011;65179;47.786;19.138;2023-01-13T10:18:43;25.55;;;12.63;;
76351;SDS011;65179;47.786;19.138;2023-01-13T10:29:30;21.92;;;12.88;;
76351;SDS011;65179;47.786;19.138;2023-01-13T10:31:57;26.62;;;13.20;;
76351;SDS011;65179;47.786;19.138;2023-01-13T10:34:24;23.10;;;12.57;;
76351;SDS011;65179;47.786;19.138;2023-01-13T10:36:54;22.37;;;12.80;;
76351;SDS011;65179;47.786;19.138;2023-01-13T10:39:27;22.80;;;13.10;;
76351;SDS011;65179;47.786;19.138;2023-01-13T10:42:02;20.58;;;12.25;;
76351;SDS011;65179;47.786;19.138;2023-01-13T10:44:29;24.30;;;12.73;;
76351;SDS011;65179;47.786;19.138;2023-01-13T10:46:56;22.00;;;12.43;;
76351;SDS011;65179;47.786;19.138;2023-01-13T10:49:27;20.92;;;12.30;;
76351;SDS011;65179;47.786;19.138;2023-01-13T10:51:57;21.62;;;11.80;;
76351;SDS011;65179;47.786;19.138;2023-01-13T10:54:24;21.37;;;13.70;;
76351;SDS011;65179;47.786;19.138;2023-01-13T10:59:46;25.12;;;14.63;;
76351;SDS011;65179;47.786;19.138;2023-01-13T11:10:00;21.50;;;12.30;;
76351;SDS011;65179;47.786;19.138;2023-01-13T11:12:33;21.80;;;12.77;;
76351;SDS011;65179;47.786;19.138;2023-01-13T11:15:05;19.87;;;11.77;;
76351;SDS011;65179;47.786;19.138;2023-01-13T11:17:39;22.23;;;12.45;;
76351;SDS011;65179;47.786;19.138;2023-01-13T11:22:37;21.62;;;11.68;;
76351;SDS011;65179;47.786;19.138;2023-01-13T11:25:10;19.50;;;11.43;;
76351;SDS011;65179;47.786;19.138;2023-01-13T11:33:01;24.23;;;12.13;;
76351;SDS011;65179;47.786;19.138;2023-01-13T11:35:28;23.40;;;12.35;;
76351;SDS011;65179;47.786;19.138;2023-01-13T11:38:00;21.05;;;10.98;;
76351;SDS011;65179;47.786;19.138;2023-01-13T11:40:45;24.80;;;12.47;;
76351;SDS011;65179;47.786;19.138;2023-01-13T11:45:56;21.25;;;11.88;;
76351;SDS011;65179;47.786;19.138;2023-01-13T11:48:24;22.10;;;11.27;;
76351;SDS011;65179;47.786;19.138;2023-01-13T11:51:02;22.30;;;11.75;;
76351;SDS011;65179;47.786;19.138;2023-01-13T11:59:33;23.23;;;11.98;;
76351;SDS011;65179;47.786;19.138;2023-01-13T12:10:23;21.55;;;11.80;;
76351;SDS011;65179;47.786;19.138;2023-01-13T12:15:30;26.05;;;12.82;;
76351;SDS011;65179;47.786;19.138;2023-01-13T12:23:23;24.45;;;13.25;;
76351;SDS011;65179;47.786;19.138;2023-01-13T12:26:06;27.67;;;13.13;;
76351;SDS011;65179;47.786;19.138;2023-01-13T12:31:24;22.83;;;12.82;;
76351;SDS011;65179;47.786;19.138;2023-01-13T12:37:28;22.10;;;11.50;;
76351;SDS011;65179;47.786;19.138;2023-01-13T12:45:28;25.70;;;13.52;;
76351;SDS011;65179;47.786;19.138;2023-01-13T12:47:55;28.73;;;14.47;;
76351;SDS011;65179;47.786;19.138;2023-01-13T12:52:47;26.00;;;13.48;;
76351;SDS011;65179;47.786;19.138;2023-01-13T12:55:27;29.80;;;14.87;;
76351;SDS011;65179;47.786;19.138;2023-01-13T13:05:48;27.58;;;14.57;;
76351;SDS011;65179;47.786;19.138;2023-01-13T13:08:22;29.27;;;14.70;;
76351;SDS011;65179;47.786;19.138;2023-01-13T13:11:01;37.60;;;20.95;;
76351;SDS011;65179;47.786;19.138;2023-01-13T13:18:49;49.20;;;27.13;;
76351;SDS011;65179;47.786;19.138;2023-01-13T13:21:16;46.93;;;27.23;;
76351;SDS011;65179;47.786;19.138;2023-01-13T13:23:43;43.42;;;23.90;;
76351;SDS011;65179;47.786;19.138;2023-01-13T13:26:36;25.92;;;15.52;;
76351;SDS011;65179;47.786;19.138;2023-01-13T13:35:11;158.95;;;105.63;;
76351;SDS011;65179;47.786;19.138;2023-01-13T13:40:46;208.47;;;120.87;;
76351;SDS011;65179;47.786;19.138;2023-01-13T13:43:40;36.42;;;20.50;;
76351;SDS011;65179;47.786;19.138;2023-01-13T13:46:28;34.65;;;19.08;;
76351;SDS011;65179;47.786;19.138;2023-01-13T13:49:21;26.20;;;14.50;;
76351;SDS011;65179;47.786;19.138;2023-01-13T13:54:56;31.37;;;16.20;;
76351;SDS011;65179;47.786;19.138;2023-01-13T14:00:47;27.42;;;13.48;;
76351;SDS011;65179;47.786;19.138;2023-01-13T14:03:03;30.12;;;15.68;;
76351;SDS011;65179;47.786;19.138;2023-01-13T14:05:32;27.77;;;14.93;;
76351;SDS011;65179;47.786;19.138;2023-01-13T14:08:13;28.63;;;15.10;;
76351;SDS011;65179;47.786;19.138;2023-01-13T14:10:40;40.90;;;20.70;;
76351;SDS011;65179;47.786;19.138;2023-01-13T14:15:48;32.00;;;17.85;;
76351;SDS011;65179;47.786;19.138;2023-01-13T14:18:39;30.88;;;16.42;;
76351;SDS011;65179;47.786;19.138;2023-01-13T14:21:19;31.50;;;16.13;;
76351;SDS011;65179;47.786;19.138;2023-01-13T14:23:49;31.75;;;17.10;;
76351;SDS011;65179;47.786;19.138;2023-01-13T14:26:23;35.15;;;17.12;;
76351;SDS011;65179;47.786;19.138;2023-01-13T14:28:50;30.45;;;15.55;;
76351;SDS011;65179;47.786;19.138;2023-01-13T14:31:17;25.33;;;13.55;;
76351;SDS011;65179;47.786;19.138;2023-01-13T14:33:44;34.63;;;16.37;;
76351;SDS011;65179;47.786;19.138;2023-01-13T14:36:13;32.38;;;18.40;;
76351;SDS011;65179;47.786;19.138;2023-01-13T14:38:42;31.80;;;16.87;;
76351;SDS011;65179;47.786;19.138;2023-01-13T14:41:31;32.97;;;18.23;;
76351;SDS011;65179;47.786;19.138;2023-01-13T14:43:56;33.20;;;17.12;;
76351;SDS011;65179;47.786;19.138;2023-01-13T14:46:50;32.40;;;17.60;;
76351;SDS011;65179;47.786;19.138;2023-01-13T14:52:04;29.85;;;15.23;;
76351;SDS011;65179;47.786;19.138;2023-01-13T15:10:18;32.65;;;16.77;;
76351;SDS011;65179;47.786;19.138;2023-01-13T15:12:49;36.67;;;17.62;;
76351;SDS011;65179;47.786;19.138;2023-01-13T15:15:30;34.58;;;16.75;;
76351;SDS011;65179;47.786;19.138;2023-01-13T15:17:58;33.47;;;15.75;;
76351;SDS011;65179;47.786;19.138;2023-01-13T15:20:25;32.35;;;16.45;;
76351;SDS011;65179;47.786;19.138;2023-01-13T15:22:52;32.38;;;16.20;;
76351;SDS011;65179;47.786;19.138;2023-01-13T15:25:19;30.92;;;16.65;;
76351;SDS011;65179;47.786;19.138;2023-01-13T15:27:45;32.22;;;16.55;;
76351;SDS011;65179;47.786;19.138;2023-01-13T15:30:17;33.13;;;16.20;;
76351;SDS011;65179;47.786;19.138;2023-01-13T15:32:46;27.87;;;14.57;;
76351;SDS011;65179;47.786;19.138;2023-01-13T15:35:12;28.63;;;14.80;;
76351;SDS011;65179;47.786;19.138;2023-01-13T15:37:39;36.88;;;16.70;;
76351;SDS011;65179;47.786;19.138;2023-01-13T15:40:10;31.85;;;16.52;;
76351;SDS011;65179;47.786;19.138;2023-01-13T15:42:40;33.70;;;16.17;;
76351;SDS011;65179;47.786;19.138;2023-01-13T15:45:24;28.55;;;15.07;;
76351;SDS011;65179;47.786;19.138;2023-01-13T15:48:09;31.65;;;15.75;;
76351;SDS011;65179;47.786;19.138;2023-01-13T15:50:34;30.90;;;15.32;;
76351;SDS011;65179;47.786;19.138;2023-01-13T15:53:00;29.00;;;13.93;;
76351;SDS011;65179;47.786;19.138;2023-01-13T15:55:25;29.85;;;14.75;;
76351;SDS011;65179;47.786;19.138;2023-01-13T15:57:51;31.23;;;14.60;;
76351;SDS011;65179;47.786;19.138;2023-01-13T16:00:17;33.37;;;16.53;;
76351;SDS011;65179;47.786;19.138;2023-01-13T16:02:44;32.80;;;16.23;;
76351;SDS011;65179;47.786;19.138;2023-01-13T16:05:10;31.00;;;15.50;;
76351;SDS011;65179;47.786;19.138;2023-01-13T16:07:36;29.15;;;14.65;;
76351;SDS011;65179;47.786;19.138;2023-01-13T16:10:03;29.17;;;15.40;;
76351;SDS011;65179;47.786;19.138;2023-01-13T16:12:31;31.12;;;15.43;;
76351;SDS011;65179;47.786;19.138;2023-01-13T16:14:56;28.77;;;14.70;;
76351;SDS011;65179;47.786;19.138;2023-01-13T16:17:24;30.05;;;14.75;;
76351;SDS011;65179;47.786;19.138;2023-01-13T16:19:53;27.15;;;14.63;;
76351;SDS011;65179;47.786;19.138;2023-01-13T16:22:19;32.00;;;14.77;;
76351;SDS011;65179;47.786;19.138;2023-01-13T16:24:44;27.43;;;13.63;;
76351;SDS011;65179;47.786;19.138;2023-01-13T16:27:18;34.72;;;14.73;;
76351;SDS011;65179;47.786;19.138;2023-01-13T16:29:45;28.10;;;14.05;;
76351;SDS011;65179;47.786;19.138;2023-01-13T16:32:11;32.67;;;14.45;;
76351;SDS011;65179;47.786;19.138;2023-01-13T16:34:37;32.33;;;13.57;;
76351;SDS011;65179;47.786;19.138;2023-01-13T16:37:03;33.43;;;14.47;;
76351;SDS011;65179;47.786;19.138;2023-01-13T16:39:28;32.28;;;13.93;;
76351;SDS011;65179;47.786;19.138;2023-01-13T16:41:55;35.40;;;14.43;;
76351;SDS011;65179;47.786;19.138;2023-01-13T16:44:21;30.17;;;13.95;;
76351;SDS011;65179;47.786;19.138;2023-01-13T16:46:47;35.67;;;14.52;;
76351;SDS011;65179;47.786;19.138;2023-01-13T16:49:13;36.07;;;13.80;;
76351;SDS011;65179;47.786;19.138;2023-01-13T16:51:40;33.50;;;15.23;;
76351;SDS011;65179;47.786;19.138;2023-01-13T16:54:06;34.80;;;14.13;;